Time;durP1;ratioP1;P1;durP2;ratioP2;P2;SDS_P1;SDS_P2;PMS_P1;PMS_P2;Temp;Humidity;BMP_temperature;BMP_pressure;BME280_temperature;BME280_humidity;BME280_pressure;Samples;Min_cycle;Max_cycle;Signal;HPM_P1;HPM_P2
2023/04/08 00:01:27;;;;;;;4.00;3.80;;;;;;;;;;5018031;28;20050;-95
2023/04/08 00:03:53;;;;;;;4.03;3.63;;;;;;;;;;5018456;28;20049;-94
2023/04/08 00:06:20;;;;;;;5.32;5.05;;;;;;;;;;5018006;28;20116;-95
2023/04/08 00:08:46;;;;;;;4.13;3.83;;;;;;;;;;5018383;28;20057;-95
2023/04/08 00:11:13;;;;;;;5.05;4.75;;;;;;;;;;5018034;28;20050;-94
2023/04/08 00:13:40;;;;;;;5.25;4.25;;;;;;;;;;5018351;28;20058;-93
2023/04/08 00:16:08;;;;;;;4.57;4.20;;;;;;;;;;5017941;28;20045;-94
2023/04/08 00:18:36;;;;;;;7.22;6.65;;;;;;;;;;5017967;28;20445;-94
2023/04/08 00:21:03;;;;;;;7.03;6.63;;;;;;;;;;5017507;28;20103;-94
2023/04/08 00:23:30;;;;;;;5.53;5.15;;;;;;;;;;5017336;28;20056;-95
2023/04/08 00:25:56;;;;;;;14.57;6.80;;;;;;;;;;5017371;28;20058;-94
2023/04/08 00:28:23;;;;;;;5.43;5.13;;;;;;;;;;5016535;28;20050;-94
2023/04/08 00:30:50;;;;;;;7.30;6.75;;;;;;;;;;5017367;28;20054;-94
2023/04/08 00:33:18;;;;;;;6.20;5.80;;;;;;;;;;5017307;28;20466;-94
2023/04/08 00:35:45;;;;;;;5.15;4.85;;;;;;;;;;5017300;28;20045;-94
2023/04/08 00:38:11;;;;;;;3.78;3.58;;;;;;;;;;5017028;28;20092;-93
2023/04/08 00:40:38;;;;;;;8.23;7.63;;;;;;;;;;5016962;28;20053;-93
2023/04/08 00:43:04;;;;;;;6.43;6.03;;;;;;;;;;5017215;28;20458;-94
2023/04/08 00:45:31;;;;;;;6.38;5.88;;;;;;;;;;5017254;28;20119;-93
2023/04/08 00:47:57;;;;;;;5.95;5.53;;;;;;;;;;5016804;28;20092;-94
2023/04/08 00:50:25;;;;;;;4.28;4.03;;;;;;;;;;5017077;28;20088;-94
2023/04/08 00:52:52;;;;;;;6.43;6.03;;;;;;;;;;5016853;28;20103;-93
2023/04/08 00:55:18;;;;;;;6.28;5.88;;;;;;;;;;5016735;28;20055;-93
2023/04/08 00:57:45;;;;;;;6.07;5.57;;;;;;;;;;5016829;28;20548;-94
2023/04/08 01:00:12;;;;;;;4.90;4.65;;;;;;;;;;5016705;28;20057;-93
2023/04/08 01:02:41;;;;;;;6.13;5.57;;;;;;;;;;5016564;28;20049;-93
2023/04/08 01:05:12;;;;;;;9.55;8.23;;;;;;;;;;5016397;28;20426;-93
2023/04/08 01:07:44;;;;;;;5.60;5.10;;;;;;;;;;5015956;28;20544;-94
2023/04/08 01:10:12;;;;;;;7.00;6.50;;;;;;;;;;5016386;28;20053;-93
2023/04/08 01:12:40;;;;;;;6.60;6.30;;;;;;;;;;5015919;28;20515;-93
2023/04/08 01:15:08;;;;;;;5.78;5.47;;;;;;;;;;5016159;28;20060;-93
2023/04/08 01:17:36;;;;;;;5.80;5.47;;;;;;;;;;5016096;28;20042;-94
2023/04/08 01:20:03;;;;;;;6.80;6.40;;;;;;;;;;5016221;28;20046;-93
2023/04/08 01:22:34;;;;;;;6.15;5.75;;;;;;;;;;5016163;28;20112;-93
2023/04/08 01:25:01;;;;;;;;;;;;;;;;;;5016875;28;20065;-94
2023/04/08 01:27:30;;;;;;;5.57;5.22;;;;;;;;;;5016208;28;19921;-94
2023/04/08 01:29:58;;;;;;;5.25;4.85;;;;;;;;;;5016214;28;20046;-93
2023/04/08 01:32:25;;;;;;;5.28;4.88;;;;;;;;;;5016224;28;20046;-93
2023/04/08 01:34:53;;;;;;;5.22;4.93;;;;;;;;;;5024906;28;20060;-94
2023/04/08 01:37:20;;;;;;;3.78;3.58;;;;;;;;;;5036259;28;20103;-93
2023/04/08 01:39:47;;;;;;;6.90;6.45;;;;;;;;;;5035028;28;20049;-93
2023/04/08 01:42:14;;;;;;;5.97;5.57;;;;;;;;;;5036358;28;20056;-94
2023/04/08 01:44:42;;;;;;;4.32;4.03;;;;;;;;;;5036491;28;20045;-94
2023/04/08 01:47:09;;;;;;;6.07;5.65;;;;;;;;;;5036317;28;20497;-95
2023/04/08 01:49:36;;;;;;;5.75;5.40;;;;;;;;;;5036223;28;20103;-95
2023/04/08 01:52:04;;;;;;;6.20;4.80;;;;;;;;;;5035784;28;20567;-95
2023/04/08 01:54:31;;;;;;;4.18;3.97;;;;;;;;;;5035938;28;20115;-93
2023/04/08 01:56:58;;;;;;;6.82;3.63;;;;;;;;;;5035582;28;20049;-93
2023/04/08 01:59:26;;;;;;;4.35;4.15;;;;;;;;;;5034944;28;20709;-94
2023/04/08 02:01:55;;;;;;;5.72;5.22;;;;;;;;;;5035538;28;20049;-94
2023/04/08 02:04:22;;;;;;;3.28;3.13;;;;;;;;;;5035831;28;20460;-95
2023/04/08 02:06:49;;;;;;;6.57;5.13;;;;;;;;;;5035382;28;20050;-94
2023/04/08 02:09:15;;;;;;;5.13;4.93;;;;;;;;;;5035115;28;20045;-94
2023/04/08 02:11:42;;;;;;;6.28;5.97;;;;;;;;;;5035247;28;20489;-93
2023/04/08 02:14:08;;;;;;;6.70;6.20;;;;;;;;;;5035159;28;20778;-94
2023/04/08 02:16:39;;;;;;;9.90;9.20;;;;;;;;;;5035438;28;20467;-94
2023/04/08 02:19:09;;;;;;;7.65;7.25;;;;;;;;;;5035144;28;20049;-93
2023/04/08 02:21:38;;;;;;;6.78;6.40;;;;;;;;;;5035363;28;20056;-94
2023/04/08 02:24:06;;;;;;;6.53;6.22;;;;;;;;;;5035152;28;20452;-93
2023/04/08 02:26:33;;;;;;;5.28;4.88;;;;;;;;;;5035337;28;20103;-93
2023/04/08 02:29:00;;;;;;;3.72;3.53;;;;;;;;;;5035444;28;20104;-93
2023/04/08 02:31:27;;;;;;;6.00;5.60;;;;;;;;;;5035289;28;20099;-93
2023/04/08 02:33:54;;;;;;;6.68;6.10;;;;;;;;;;5035352;28;20132;-94
2023/04/08 02:36:22;;;;;;;5.13;4.78;;;;;;;;;;5034975;28;20136;-94
2023/04/08 02:38:49;;;;;;;6.30;6.00;;;;;;;;;;5034552;28;20049;-94
2023/04/08 02:41:16;;;;;;;7.85;7.35;;;;;;;;;;5035063;28;20123;-94
2023/04/08 02:43:43;;;;;;;5.68;5.38;;;;;;;;;;5034047;28;20136;-94
2023/04/08 02:46:11;;;;;;;5.30;4.82;;;;;;;;;;5034808;28;20048;-94
2023/04/08 02:48:37;;;;;;;5.95;5.57;;;;;;;;;;5034618;28;20098;-94
2023/04/08 02:51:04;;;;;;;4.68;4.35;;;;;;;;;;5034530;28;20049;-94
2023/04/08 02:53:32;;;;;;;6.60;6.10;;;;;;;;;;5035252;28;20104;-94
2023/04/08 02:55:58;;;;;;;6.03;5.63;;;;;;;;;;5034605;28;20444;-94
2023/04/08 02:58:25;;;;;;;6.40;5.93;;;;;;;;;;5034999;28;20505;-94
2023/04/08 03:00:51;;;;;;;5.88;5.38;;;;;;;;;;5035410;28;20053;-94
2023/04/08 03:03:18;;;;;;;5.63;5.32;;;;;;;;;;5034728;28;20052;-94
2023/04/08 03:05:45;;;;;;;6.22;5.93;;;;;;;;;;5035045;28;20053;-94
2023/04/08 03:08:11;;;;;;;7.43;7.03;;;;;;;;;;5034748;28;20547;-94
2023/04/08 03:10:39;;;;;;;11.15;6.30;;;;;;;;;;5034605;28;20513;-93
2023/04/08 03:13:06;;;;;;;9.23;8.45;;;;;;;;;;5035105;28;20053;-93
2023/04/08 03:15:32;;;;;;;7.63;6.93;;;;;;;;;;5034677;28;20046;-93
2023/04/08 03:17:59;;;;;;;11.10;10.02;;;;;;;;;;5034702;28;20068;-94
2023/04/08 03:20:25;;;;;;;7.47;7.07;;;;;;;;;;5034682;28;20060;-93
2023/04/08 03:22:52;;;;;;;6.07;5.68;;;;;;;;;;5034898;28;20099;-93
2023/04/08 03:25:19;;;;;;;6.10;5.70;;;;;;;;;;5033986;28;20516;-93
2023/04/08 03:27:47;;;;;;;5.53;5.22;;;;;;;;;;5034260;28;20130;-93
2023/04/08 03:30:13;;;;;;;7.00;6.30;;;;;;;;;;5033980;28;20045;-94
2023/04/08 03:32:40;;;;;;;6.95;6.63;;;;;;;;;;5033900;28;20103;-93
2023/04/08 03:35:07;;;;;;;5.05;4.82;;;;;;;;;;5033958;28;20060;-94
2023/04/08 03:37:33;;;;;;;5.00;4.70;;;;;;;;;;5034348;28;20053;-93
2023/04/08 03:40:00;;;;;;;4.75;4.45;;;;;;;;;;5034175;28;20551;-94
2023/04/08 03:42:26;;;;;;;6.80;6.40;;;;;;;;;;5034328;28;20095;-94
2023/04/08 03:44:54;;;;;;;7.93;7.38;;;;;;;;;;5034150;28;20045;-93
2023/04/08 03:47:21;;;;;;;6.53;6.13;;;;;;;;;;5034397;28;20444;-93
2023/04/08 03:49:47;;;;;;;4.55;4.35;;;;;;;;;;5034211;28;20107;-93
2023/04/08 03:52:14;;;;;;;5.97;5.57;;;;;;;;;;5034426;28;20050;-94
2023/04/08 03:54:40;;;;;;;6.90;6.40;;;;;;;;;;5034468;28;20056;-94
2023/04/08 03:57:07;;;;;;;7.07;6.68;;;;;;;;;;5034905;28;20049;-94
2023/04/08 03:59:35;;;;;;;7.40;6.65;;;;;;;;;;5034724;28;20056;-94
2023/04/08 04:02:03;;;;;;;6.93;6.53;;;;;;;;;;5034392;28;20049;-92
2023/04/08 04:04:29;;;;;;;6.15;5.85;;;;;;;;;;5037776;28;20057;-93
2023/04/08 04:06:56;;;;;;;6.20;5.63;;;;;;;;;;5038134;28;20485;-95
2023/04/08 04:09:22;;;;;;;6.68;6.10;;;;;;;;;;5036414;28;20091;-95
2023/04/08 04:11:49;;;;;;;6.88;6.40;;;;;;;;;;5037972;28;20057;-93
2023/04/08 04:14:15;;;;;;;8.02;7.18;;;;;;;;;;5037599;28;20054;-95
2023/04/08 04:16:42;;;;;;;7.35;6.97;;;;;;;;;;5037314;28;20485;-94
2023/04/08 04:19:10;;;;;;;5.20;4.88;;;;;;;;;;5037144;28;20061;-93
2023/04/08 04:21:36;;;;;;;5.53;5.22;;;;;;;;;;5037319;28;20057;-94
2023/04/08 04:24:03;;;;;;;5.35;5.00;;;;;;;;;;5037557;28;20053;-95
2023/04/08 04:26:30;;;;;;;5.85;5.47;;;;;;;;;;5036812;28;20562;-93
2023/04/08 04:28:56;;;;;;;8.93;5.32;;;;;;;;;;5037120;28;20084;-94
2023/04/08 04:31:25;;;;;;;6.35;5.97;;;;;;;;;;5037052;28;20045;-93
2023/04/08 04:33:51;;;;;;;5.55;5.15;;;;;;;;;;5037297;28;20100;-94
2023/04/08 04:36:19;;;;;;;7.70;6.22;;;;;;;;;;5037218;28;20444;-93
2023/04/08 04:38:46;;;;;;;7.53;7.05;;;;;;;;;;5037178;28;20080;-93
2023/04/08 04:41:12;;;;;;;6.97;6.47;;;;;;;;;;5036956;28;20041;-93
2023/04/08 04:43:39;;;;;;;5.65;5.35;;;;;;;;;;5037244;28;20045;-93
2023/04/08 04:46:06;;;;;;;7.90;5.18;;;;;;;;;;5037172;28;20433;-93
2023/04/08 04:48:32;;;;;;;7.00;6.60;;;;;;;;;;5037265;28;20049;-93
2023/04/08 04:51:00;;;;;;;5.57;5.05;;;;;;;;;;5037265;28;20072;-93
2023/04/08 04:53:28;;;;;;;6.60;6.20;;;;;;;;;;5036966;28;20045;-93
2023/04/08 04:55:54;;;;;;;10.05;8.88;;;;;;;;;;5036832;28;20099;-93
2023/04/08 04:58:21;;;;;;;9.13;8.50;;;;;;;;;;5037121;28;20045;-94
2023/04/08 05:00:47;;;;;;;13.60;7.25;;;;;;;;;;5036907;28;20058;-93
2023/04/08 05:03:14;;;;;;;8.07;6.55;;;;;;;;;;5036525;28;20489;-93
2023/04/08 05:05:41;;;;;;;7.90;7.28;;;;;;;;;;5036134;28;20053;-93
2023/04/08 05:08:07;;;;;;;6.63;6.28;;;;;;;;;;5036224;28;20050;-93
2023/04/08 05:10:35;;;;;;;7.95;7.28;;;;;;;;;;5036426;28;20099;-94
2023/04/08 05:13:02;;;;;;;8.23;7.57;;;;;;;;;;5034726;28;20049;-93
2023/04/08 05:15:28;;;;;;;7.00;6.60;;;;;;;;;;5035992;28;20053;-92
2023/04/08 05:17:55;;;;;;;9.38;8.68;;;;;;;;;;5036418;28;20478;-93
2023/04/08 05:20:21;;;;;;;8.43;7.20;;;;;;;;;;5035728;28;20053;-94
2023/04/08 05:22:49;;;;;;;8.00;7.53;;;;;;;;;;5035779;28;20046;-94
2023/04/08 05:25:16;;;;;;;6.40;5.88;;;;;;;;;;5031310;28;20077;-93
2023/04/08 05:27:44;;;;;;;7.22;6.63;;;;;;;;;;5036245;28;20053;-93
2023/04/08 05:30:11;;;;;;;10.15;9.50;;;;;;;;;;5036302;28;20060;-94
2023/04/08 05:32:37;;;;;;;7.03;6.60;;;;;;;;;;5036256;28;20045;-94
2023/04/08 05:35:04;;;;;;;6.65;5.70;;;;;;;;;;5036720;28;20057;-94
2023/04/08 05:37:31;;;;;;;6.72;6.43;;;;;;;;;;5036141;28;20083;-93
2023/04/08 05:39:57;;;;;;;6.75;6.10;;;;;;;;;;5036257;28;20095;-94
2023/04/08 05:42:24;;;;;;;6.00;5.60;;;;;;;;;;5036321;28;20045;-94
2023/04/08 05:44:52;;;;;;;5.57;5.28;;;;;;;;;;5023709;28;20104;-93
2023/04/08 05:47:18;;;;;;;7.93;7.40;;;;;;;;;;5016400;28;20049;-94
2023/04/08 05:49:45;;;;;;;8.93;8.23;;;;;;;;;;5016212;28;20449;-93
2023/04/08 05:52:12;;;;;;;8.13;7.72;;;;;;;;;;5035115;28;20095;-93
2023/04/08 05:54:38;;;;;;;8.45;7.95;;;;;;;;;;5035174;28;20053;-94
2023/04/08 05:57:05;;;;;;;6.03;5.60;;;;;;;;;;5035441;28;20045;-94
2023/04/08 05:59:31;;;;;;;6.85;6.35;;;;;;;;;;5035612;28;20053;-93
2023/04/08 06:01:59;;;;;;;6.05;5.72;;;;;;;;;;5034832;28;20115;-93
2023/04/08 06:04:26;;;;;;;9.45;9.05;;;;;;;;;;5034986;28;20049;-93
2023/04/08 06:06:52;;;;;;;7.93;7.43;;;;;;;;;;5034954;28;20053;-94
2023/04/08 06:09:19;;;;;;;6.43;5.95;;;;;;;;;;5033178;28;20455;-93
2023/04/08 06:11:46;;;;;;;8.30;7.80;;;;;;;;;;5035137;28;20493;-93
2023/04/08 06:14:12;;;;;;;8.05;7.65;;;;;;;;;;5035249;28;20053;-93
2023/04/08 06:16:39;;;;;;;6.85;6.45;;;;;;;;;;5035299;28;20053;-93
2023/04/08 06:19:10;;;;;;;9.32;8.57;;;;;;;;;;5035031;28;20060;-96
2023/04/08 06:21:36;;;;;;;7.70;7.00;;;;;;;;;;5034977;28;20060;-92
2023/04/08 06:24:03;;;;;;;11.88;10.95;;;;;;;;;;5033386;28;20409;-93
2023/04/08 06:26:29;;;;;;;9.20;8.57;;;;;;;;;;5014475;28;20426;-92
2023/04/08 06:28:56;;;;;;;8.65;7.97;;;;;;;;;;5015041;28;20073;-92
2023/04/08 06:31:23;;;;;;;8.43;8.02;;;;;;;;;;5015002;28;20552;-92
2023/04/08 06:33:51;;;;;;;8.50;7.88;;;;;;;;;;5014968;28;20050;-92
2023/04/08 06:36:19;;;;;;;8.90;8.27;;;;;;;;;;5015057;28;20073;-93
2023/04/08 06:38:45;;;;;;;7.80;7.32;;;;;;;;;;5015236;28;20056;-92
2023/04/08 06:41:12;;;;;;;9.40;8.90;;;;;;;;;;5019646;28;20099;-92
2023/04/08 06:43:39;;;;;;;10.65;9.95;;;;;;;;;;5034531;28;20461;-92
2023/04/08 06:46:05;;;;;;;6.82;6.43;;;;;;;;;;5034278;28;20486;-92
2023/04/08 06:48:32;;;;;;;9.98;9.48;;;;;;;;;;5034500;28;20048;-92
2023/04/08 06:50:59;;;;;;;10.73;10.10;;;;;;;;;;5034543;28;20057;-93
2023/04/08 06:53:28;;;;;;;10.60;9.82;;;;;;;;;;5034356;28;20052;-93
2023/04/08 06:55:55;;;;;;;7.97;7.40;;;;;;;;;;5034191;28;20493;-93
2023/04/08 06:58:21;;;;;;;10.80;10.07;;;;;;;;;;5032435;28;20059;-93
2023/04/08 07:00:48;;;;;;;8.07;7.57;;;;;;;;;;5034357;28;20045;-93
2023/04/08 07:03:14;;;;;;;14.13;13.43;;;;;;;;;;5034745;28;20387;-93
2023/04/08 07:05:41;;;;;;;9.35;8.85;;;;;;;;;;5034380;28;20060;-93
2023/04/08 07:08:08;;;;;;;13.05;12.30;;;;;;;;;;5035020;28;20476;-93
2023/04/08 07:10:37;;;;;;;8.35;7.85;;;;;;;;;;5034632;28;20049;-93
2023/04/08 07:13:04;;;;;;;9.23;7.88;;;;;;;;;;5035178;28;20049;-93
2023/04/08 07:15:30;;;;;;;9.05;8.35;;;;;;;;;;5034290;28;20064;-93
2023/04/08 07:17:57;;;;;;;8.32;7.72;;;;;;;;;;5032031;28;20049;-93
2023/04/08 07:20:24;;;;;;;10.18;9.57;;;;;;;;;;5034558;28;20137;-93
2023/04/08 07:22:51;;;;;;;13.32;12.63;;;;;;;;;;5034624;28;20420;-93
2023/04/08 07:25:18;;;;;;;10.52;9.90;;;;;;;;;;5034193;28;20057;-93
2023/04/08 07:27:46;;;;;;;11.75;10.85;;;;;;;;;;5034090;28;20049;-93
2023/04/08 07:30:12;;;;;;;9.70;9.30;;;;;;;;;;5033718;28;20103;-94
2023/04/08 07:32:39;;;;;;;11.45;10.63;;;;;;;;;;5034129;28;20050;-93
2023/04/08 07:35:06;;;;;;;9.85;9.35;;;;;;;;;;5029975;28;20059;-92
2023/04/08 07:37:33;;;;;;;10.48;9.88;;;;;;;;;;5036307;28;20049;-93
2023/04/08 07:39:59;;;;;;;14.18;13.50;;;;;;;;;;5035490;28;20108;-93
2023/04/08 07:42:26;;;;;;;11.13;10.60;;;;;;;;;;5019102;28;20071;-92
2023/04/08 07:44:54;;;;;;;27.75;26.55;;;;;;;;;;5018277;28;20049;-93
2023/04/08 07:47:20;;;;;;;17.05;16.17;;;;;;;;;;5019421;28;20449;-92
2023/04/08 07:49:47;;;;;;;15.15;14.35;;;;;;;;;;5020300;28;20394;-93
2023/04/08 07:52:14;;;;;;;11.70;11.00;;;;;;;;;;5017614;28;20073;-93
2023/04/08 07:54:41;;;;;;;15.35;14.60;;;;;;;;;;5017907;28;20473;-94
2023/04/08 07:57:07;;;;;;;14.05;12.80;;;;;;;;;;5037137;28;20049;-95
2023/04/08 07:59:34;;;;;;;11.77;10.98;;;;;;;;;;5047237;28;20083;-96
2023/04/08 08:02:03;;;;;;;15.85;15.10;;;;;;;;;;5041432;28;20076;-95
2023/04/08 08:04:29;;;;;;;14.00;13.30;;;;;;;;;;5041790;28;20500;-96
2023/04/08 08:06:56;;;;;;;14.85;14.05;;;;;;;;;;5031904;28;20077;-95
2023/04/08 08:09:22;;;;;;;10.90;10.30;;;;;;;;;;5021065;28;20046;-95
2023/04/08 08:11:49;;;;;;;15.25;14.30;;;;;;;;;;5035624;28;20049;-94
2023/04/08 08:14:15;;;;;;;11.27;10.45;;;;;;;;;;5039303;28;20049;-96
2023/04/08 08:16:43;;;;;;;26.60;25.23;;;;;;;;;;5040674;28;20046;-96
2023/04/08 08:19:12;;;;;;;24.73;23.63;;;;;;;;;;5039499;28;20045;-95
2023/04/08 08:21:39;;;;;;;14.35;13.65;;;;;;;;;;5038458;28;20073;-94
2023/04/08 08:24:06;;;;;;;16.38;15.48;;;;;;;;;;5024891;28;20490;-95
2023/04/08 08:26:34;;;;;;;13.95;13.05;;;;;;;;;;5018171;28;20064;-94
2023/04/08 08:29:01;;;;;;;16.67;15.82;;;;;;;;;;5019290;28;20085;-94
2023/04/08 08:31:27;;;;;;;16.60;15.50;;;;;;;;;;5020273;28;20053;-95
2023/04/08 08:33:54;;;;;;;14.00;12.63;;;;;;;;;;5037764;28;20072;-94
2023/04/08 08:36:22;;;;;;;12.82;12.13;;;;;;;;;;5040667;28;20045;-95
2023/04/08 08:38:50;;;;;;;12.73;11.93;;;;;;;;;;5040434;28;20045;-95
2023/04/08 08:41:17;;;;;;;24.20;22.98;;;;;;;;;;5025349;28;20049;-96
2023/04/08 08:43:44;;;;;;;28.50;27.25;;;;;;;;;;5019322;28;20046;-96
2023/04/08 08:46:11;;;;;;;14.43;13.73;;;;;;;;;;5027042;28;20095;-95
2023/04/08 08:48:39;;;;;;;31.13;29.88;;;;;;;;;;5038480;28;20060;-95
2023/04/08 08:51:08;;;;;;;11.77;11.27;;;;;;;;;;5029096;28;20042;-96
2023/04/08 08:53:36;;;;;;;11.35;10.85;;;;;;;;;;5017086;28;20053;-96
2023/04/08 08:56:03;;;;;;;11.85;11.15;;;;;;;;;;5025050;28;20053;-95
2023/04/08 08:58:30;;;;;;;13.75;13.05;;;;;;;;;;5039522;28;20045;-96
2023/04/08 09:00:56;;;;;;;11.70;11.13;;;;;;;;;;5039976;28;20129;-96
2023/04/08 09:03:23;;;;;;;14.38;13.77;;;;;;;;;;5038329;28;20049;-94
2023/04/08 09:08:43;;;;;;;9.63;9.23;;;;;;;;;;5053749;28;20057;-96
2023/04/08 09:11:14;;;;;;;15.25;14.55;;;;;;;;;;5054327;28;20072;-96
2023/04/08 09:13:41;;;;;;;11.07;10.50;;;;;;;;;;5052379;28;20060;-96
2023/04/08 09:16:09;;;;;;;11.88;11.18;;;;;;;;;;5053045;28;20060;-96
2023/04/08 09:18:36;;;;;;;11.40;10.73;;;;;;;;;;5050347;28;20045;-96
2023/04/08 09:21:17;;;;;;;14.90;14.02;;;;;;;;;;5052492;28;20052;-96
2023/04/08 09:23:49;;;;;;;12.23;11.70;;;;;;;;;;5054270;28;20048;-96
2023/04/08 09:26:33;;;;;;;11.43;10.63;;;;;;;;;;5045969;28;20049;-95
2023/04/08 09:29:07;;;;;;;10.95;10.25;;;;;;;;;;5033082;28;20046;-96
2023/04/08 09:31:40;;;;;;;9.90;9.40;;;;;;;;;;5038890;28;20042;-96
2023/04/08 09:34:10;;;;;;;11.15;10.73;;;;;;;;;;5034049;28;20049;-96
2023/04/08 09:36:44;;;;;;;9.85;9.35;;;;;;;;;;5033503;28;20050;-96
2023/04/08 09:39:12;;;;;;;11.73;11.02;;;;;;;;;;5034340;28;20033;-96
2023/04/08 09:44:30;;;;;;;9.25;8.85;;;;;;;;;;5031461;28;20034;-96
2023/04/08 09:47:01;;;;;;;10.85;10.35;;;;;;;;;;5030629;28;20109;-96
2023/04/08 09:49:30;;;;;;;13.93;13.23;;;;;;;;;;5032364;28;20146;-96
2023/04/08 09:52:07;;;;;;;12.80;12.25;;;;;;;;;;5032694;28;20045;-96
2023/04/08 09:54:46;;;;;;;11.45;10.93;;;;;;;;;;5030180;28;20108;-96
2023/04/08 09:57:18;;;;;;;10.35;9.95;;;;;;;;;;5033099;28;20057;-96
2023/04/08 10:00:04;;;;;;;14.48;13.68;;;;;;;;;;5032271;28;20058;-96
2023/04/08 10:05:21;;;;;;;12.38;11.60;;;;;;;;;;5039482;28;20053;-96
2023/04/08 10:07:49;;;;;;;11.60;10.93;;;;;;;;;;5031776;28;20054;-96
2023/04/08 10:10:18;;;;;;;10.57;10.07;;;;;;;;;;5028118;28;20045;-96
2023/04/08 10:12:55;;;;;;;12.98;12.45;;;;;;;;;;5043454;28;20064;-96
2023/04/08 10:15:22;;;;;;;10.98;10.48;;;;;;;;;;5044234;28;20057;-96
2023/04/08 10:17:50;;;;;;;13.00;12.23;;;;;;;;;;5030061;28;20053;-96
2023/04/08 10:20:32;;;;;;;15.10;14.18;;;;;;;;;;5025625;28;20081;-96
2023/04/08 10:22:58;;;;;;;12.20;11.70;;;;;;;;;;5037347;28;20072;-96
2023/04/08 10:25:32;;;;;;;13.70;13.07;;;;;;;;;;5044945;28;20056;-96
2023/04/08 10:28:16;;;;;;;11.05;10.55;;;;;;;;;;5026636;28;20054;-96
2023/04/08 10:30:44;;;;;;;9.15;8.75;;;;;;;;;;5017703;28;20137;-96
2023/04/08 10:33:12;;;;;;;10.57;10.07;;;;;;;;;;5018912;28;20497;-94
2023/04/08 10:35:41;;;;;;;10.43;9.95;;;;;;;;;;5029746;28;20120;-94
2023/04/08 10:38:07;;;;;;;11.82;11.18;;;;;;;;;;5040251;28;20053;-95
2023/04/08 10:40:37;;;;;;;19.15;18.20;;;;;;;;;;5024381;28;20448;-96
2023/04/08 10:43:04;;;;;;;12.07;11.45;;;;;;;;;;5020582;28;20556;-95
2023/04/08 10:45:31;;;;;;;15.68;14.98;;;;;;;;;;5017206;28;20053;-95
2023/04/08 10:47:57;;;;;;;30.83;29.58;;;;;;;;;;5015546;28;20057;-95
2023/04/08 10:50:24;;;;;;;17.55;16.83;;;;;;;;;;5015599;28;20509;-95
2023/04/08 10:52:51;;;;;;;15.35;14.70;;;;;;;;;;5016484;28;20136;-94
2023/04/08 10:55:22;;;;;;;16.13;15.32;;;;;;;;;;5016946;28;20140;-95
2023/04/08 10:57:51;;;;;;;17.73;16.92;;;;;;;;;;5019560;28;20050;-94
2023/04/08 11:00:18;;;;;;;25.23;24.15;;;;;;;;;;5016865;28;20457;-94
2023/04/08 11:02:45;;;;;;;29.75;28.60;;;;;;;;;;5028814;28;20049;-93
2023/04/08 11:05:11;;;;;;;18.48;17.63;;;;;;;;;;5034867;28;20072;-95
2023/04/08 11:07:40;;;;;;;19.40;18.38;;;;;;;;;;5034385;28;20049;-93
2023/04/08 11:10:07;;;;;;;15.80;15.00;;;;;;;;;;5033910;28;20046;-93
2023/04/08 11:12:34;;;;;;;16.80;16.00;;;;;;;;;;5030783;28;20057;-94
2023/04/08 11:15:03;;;;;;;20.23;19.35;;;;;;;;;;5018238;28;20046;-93
2023/04/08 11:17:30;;;;;;;14.45;13.85;;;;;;;;;;5018546;28;20053;-93
2023/04/08 11:20:01;;;;;;;19.77;18.92;;;;;;;;;;5018613;28;20081;-94
2023/04/08 11:22:29;;;;;;;16.80;16.10;;;;;;;;;;5018096;28;20069;-93
2023/04/08 11:24:57;;;;;;;16.33;15.68;;;;;;;;;;5018221;28;20084;-92
2023/04/08 11:27:24;;;;;;;16.10;15.40;;;;;;;;;;5018217;28;20129;-93
2023/04/08 11:29:51;;;;;;;32.05;30.85;;;;;;;;;;5046545;28;20041;-92
2023/04/08 11:32:19;;;;;;;12.88;12.27;;;;;;;;;;5057935;28;20096;-93
2023/04/08 11:34:47;;;;;;;21.77;20.85;;;;;;;;;;5057762;28;20471;-92
2023/04/08 11:37:13;;;;;;;13.90;13.15;;;;;;;;;;5049877;28;20060;-93
2023/04/08 11:39:41;;;;;;;32.83;31.58;;;;;;;;;;5037575;28;20049;-92
2023/04/08 11:42:07;;;;;;;15.93;15.25;;;;;;;;;;5037657;28;20481;-92
2023/04/08 11:44:34;;;;;;;34.10;32.88;;;;;;;;;;5030751;28;20099;-92
2023/04/08 11:47:01;;;;;;;30.95;29.80;;;;;;;;;;5017531;28;20066;-93
2023/04/08 11:49:43;;;;;;;31.27;30.08;;;;;;;;;;5017681;28;20137;-93
2023/04/08 11:52:10;;;;;;;32.25;31.05;;;;;;;;;;5021909;28;20050;-93
2023/04/08 11:54:41;;;;;;;21.27;20.25;;;;;;;;;;5019580;28;20456;-94
2023/04/08 11:57:08;;;;;;;34.10;32.80;;;;;;;;;;5019279;28;20088;-93
2023/04/08 11:59:35;;;;;;;15.02;14.43;;;;;;;;;;5019624;28;20508;-94
2023/04/08 12:02:02;;;;;;;19.98;19.17;;;;;;;;;;5021187;28;20046;-93
2023/04/08 12:04:30;;;;;;;38.60;37.10;;;;;;;;;;5019073;28;20049;-94
2023/04/08 12:06:56;;;;;;;18.02;17.23;;;;;;;;;;5019538;28;20050;-93
2023/04/08 12:09:23;;;;;;;32.80;31.38;;;;;;;;;;5019106;28;20052;-94
2023/04/08 12:11:49;;;;;;;38.53;37.13;;;;;;;;;;5018801;28;20050;-93
2023/04/08 12:14:16;;;;;;;21.67;20.77;;;;;;;;;;5018828;28;20481;-92
2023/04/08 12:16:43;;;;;;;34.20;32.92;;;;;;;;;;5018296;28;20052;-94
2023/04/08 12:19:09;;;;;;;30.00;28.80;;;;;;;;;;5021413;28;20042;-93
2023/04/08 12:21:37;;;;;;;35.88;34.58;;;;;;;;;;5018715;28;20049;-93
2023/04/08 12:24:04;;;;;;;38.97;37.30;;;;;;;;;;5018213;28;20049;-93
2023/04/08 12:26:30;;;;;;;39.40;37.80;;;;;;;;;;5018907;28;20706;-93
2023/04/08 12:28:57;;;;;;;16.35;15.60;;;;;;;;;;5016603;28;20490;-93
2023/04/08 12:31:23;;;;;;;34.75;33.38;;;;;;;;;;5028584;28;20049;-93
2023/04/08 12:33:50;;;;;;;36.55;35.08;;;;;;;;;;5032522;28;20049;-94
2023/04/08 12:36:17;;;;;;;31.83;30.63;;;;;;;;;;5029721;28;20490;-93
2023/04/08 12:38:45;;;;;;;15.02;14.15;;;;;;;;;;5021524;28;20567;-91
2023/04/08 12:41:14;;;;;;;33.50;32.17;;;;;;;;;;5035832;28;20041;-92
2023/04/08 12:43:40;;;;;;;28.42;27.33;;;;;;;;;;5030424;28;20516;-93
2023/04/08 12:46:07;;;;;;;16.48;15.77;;;;;;;;;;5016309;28;20081;-93
2023/04/08 12:48:33;;;;;;;15.80;14.40;;;;;;;;;;5016659;28;20058;-94
2023/04/08 12:51:00;;;;;;;26.63;25.63;;;;;;;;;;5027350;28;20052;-91
2023/04/08 12:53:27;;;;;;;14.20;13.57;;;;;;;;;;5031409;28;20053;-93
2023/04/08 12:55:57;;;;;;;12.50;11.93;;;;;;;;;;5023758;28;20567;-93
2023/04/08 12:58:25;;;;;;;11.75;11.25;;;;;;;;;;5026114;28;20056;-93
2023/04/08 13:00:51;;;;;;;25.63;24.60;;;;;;;;;;5029098;28;20049;-92
2023/04/08 13:03:18;;;;;;;12.80;12.20;;;;;;;;;;5016228;28;20084;-94
2023/04/08 13:05:44;;;;;;;23.85;22.90;;;;;;;;;;5026074;28;20489;-93
2023/04/08 13:08:12;;;;;;;11.32;10.73;;;;;;;;;;5021531;28;20045;-93
2023/04/08 13:10:38;;;;;;;22.65;21.75;;;;;;;;;;5022991;28;20489;-90
2023/04/08 13:13:06;;;;;;;28.42;27.08;;;;;;;;;;5032711;28;20057;-94
2023/04/08 13:15:33;;;;;;;26.70;25.70;;;;;;;;;;5024452;28;20046;-92
2023/04/08 13:18:00;;;;;;;28.08;27.02;;;;;;;;;;5024329;28;20057;-91
2023/04/08 13:20:27;;;;;;;14.93;14.32;;;;;;;;;;5028318;28;20045;-94
2023/04/08 13:22:53;;;;;;;28.73;27.58;;;;;;;;;;5015786;28;20049;-92
2023/04/08 13:25:20;;;;;;;29.73;28.40;;;;;;;;;;5015270;28;20053;-93
2023/04/08 13:27:46;;;;;;;32.00;30.80;;;;;;;;;;5016781;28;20057;-94
2023/04/08 13:30:14;;;;;;;28.30;27.23;;;;;;;;;;5032062;28;20104;-93
2023/04/08 13:32:41;;;;;;;30.90;29.73;;;;;;;;;;5035489;28;20099;-93
2023/04/08 13:35:08;;;;;;;35.97;34.40;;;;;;;;;;5035287;28;20053;-91
2023/04/08 13:37:34;;;;;;;36.67;35.05;;;;;;;;;;5035273;28;20507;-93
2023/04/08 13:40:03;;;;;;;36.72;35.20;;;;;;;;;;5035567;28;20056;-93
2023/04/08 13:42:30;;;;;;;35.90;34.50;;;;;;;;;;5035252;28;20172;-93
2023/04/08 13:44:56;;;;;;;23.13;22.08;;;;;;;;;;5035469;28;20425;-94
2023/04/08 13:47:25;;;;;;;33.78;32.47;;;;;;;;;;5022774;28;20046;-93
2023/04/08 13:49:52;;;;;;;19.45;18.55;;;;;;;;;;5015797;28;20050;-95
2023/04/08 13:52:19;;;;;;;14.77;14.10;;;;;;;;;;5015279;28;20046;-93
2023/04/08 13:54:46;;;;;;;32.00;30.75;;;;;;;;;;5016569;28;20054;-95
2023/04/08 13:57:12;;;;;;;12.77;12.27;;;;;;;;;;5016039;28;20073;-96
2023/04/08 13:59:39;;;;;;;30.60;29.45;;;;;;;;;;5017278;28;20054;-95
2023/04/08 14:02:06;;;;;;;10.75;10.25;;;;;;;;;;5017442;28;20060;-93
2023/04/08 14:04:34;;;;;;;11.32;10.82;;;;;;;;;;5035129;28;20050;-95
2023/04/08 14:07:01;;;;;;;28.02;26.95;;;;;;;;;;5037044;28;20077;-96
2023/04/08 14:09:28;;;;;;;13.05;12.45;;;;;;;;;;5035010;28;20088;-96
2023/04/08 14:11:55;;;;;;;11.38;10.85;;;;;;;;;;5040806;28;20413;-95
2023/04/08 14:14:21;;;;;;;9.60;9.02;;;;;;;;;;5037890;28;20054;-95
2023/04/08 14:16:48;;;;;;;11.40;10.90;;;;;;;;;;5039643;28;20053;-96
2023/04/08 14:19:15;;;;;;;11.35;10.82;;;;;;;;;;5028964;28;20084;-96
2023/04/08 14:21:43;;;;;;;11.35;10.75;;;;;;;;;;5038171;28;20053;-96
2023/04/08 14:24:10;;;;;;;31.00;29.73;;;;;;;;;;5038015;28;20064;-96
2023/04/08 14:26:37;;;;;;;11.35;10.73;;;;;;;;;;5040472;28;20065;-95
2023/04/08 14:29:04;;;;;;;11.63;10.90;;;;;;;;;;5035602;28;20080;-96
2023/04/08 14:31:31;;;;;;;15.40;14.70;;;;;;;;;;5035534;28;20501;-94
2023/04/08 14:33:59;;;;;;;8.18;7.85;;;;;;;;;;5024988;28;20140;-96
2023/04/08 14:36:26;;;;;;;9.75;9.25;;;;;;;;;;5026614;28;20056;-96
2023/04/08 14:38:55;;;;;;;8.90;8.50;;;;;;;;;;5041082;28;20053;-96
2023/04/08 14:41:22;;;;;;;9.30;8.90;;;;;;;;;;5048923;28;20048;-96